Kirkersville, Ohio
Current Conditions -  °F | °C
As of 8:54 PM on Friday 19 Dec 2014 (Local Time) from KVTA Reporting Station
Overcast Overcast  
Wind Chill: 25°   Ceiling: 1700
Heat Index: 30°   Visibility: 10mi
Dew Point: 23°   Wind: 5mph
Humidity: 75%   Direction: 40°NE
Pressure: 30.28"   Gusts: NA
Location:  39.96°N, 82.6°W
Report Text: KVTA 200154Z AUTO 04004KT 10SM OVC017 M01/M05 A3028 RMK AO2 SLP263 T10111050
Loading
Personal Weather Stations






























Interactive Weather Map New forecast layout! Learn more

10-Day Weather Forecast

Advertisements
Track Severe Weather on mobile